Latest Weather Observations for Strathalbyn

IDS60801

Issued at 1:31 pm CDT Tuesday 28 February 2017 (issued every 30 minutes, with the page automatically refreshed every 10 minutes)

About weather observations | Map of weather stations | Latest weather observations for SA | Other Formats
Station Details ID: 024580 Name: STRATHALBYN RACECOURSE Lat: -35.28 Lon: 138.89 Height: 58.0 m
Data from the previous 72 hours. | See also: Recent months at Strathalbyn
Date/Time
CDT
Temp
°C
App
Temp
°C
Dew
Point
°C
Rel
Hum
%
Delta-T
°C
Wind Press
QNH
hPa
Press
MSL
hPa
Rain since
9am
mm
Dir  Spd
km/h
Gust
km/h
Spd
kts
Gust
kts
28/01:30pm 36.3 31.9 7.4 17 16.2 NE 20 26 11 14 1016.1 1015.9 -
28/01:00pm 35.7 31.0 6.0 16 16.2 NE 20 28 11 15 1016.4 1016.2 0.0
28/12:30pm 34.5 30.0 5.9 17 15.5 NNE 19 26 10 14 1016.8 1016.6 0.0
28/12:00pm 33.9 29.8 6.3 18 15.0 NNE 17 26 9 14 1017.1 1016.9 0.0
28/11:30am 34.3 29.5 5.8 17 15.4 NNE 20 28 11 15 1017.4 1017.2 0.0
28/11:00am 33.6 28.5 6.0 18 14.9 NNE 22 30 12 16 1017.6 1017.4 0.0
28/10:30am 31.3 27.1 5.7 20 13.6 NNE 17 26 9 14 1017.6 1017.4 0.0
28/10:00am 31.4 27.7 6.5 21 13.4 NNE 15 20 8 11 1017.7 1017.5 0.0
28/09:30am 28.1 25.3 8.4 29 10.7 NE 13 17 7 9 1017.7 1017.5 0.0
28/09:00am 25.8 25.3 11.9 42 8.0 ENE 6 9 3 5 1017.8 1017.6 0.0
28/08:30am 23.1 21.9 11.5 48 6.5 NE 9 13 5 7 1017.7 1017.5 0.0
28/08:00am 18.9 18.6 12.6 67 3.5 N 6 7 3 4 1017.7 1017.5 0.0
28/07:30am 18.3 17.2 12.1 67 3.4 N 9 11 5 6 1017.5 1017.3 0.0
28/07:00am 17.2 15.4 12.1 72 2.8 N 13 13 7 7 1017.3 1017.1 0.0
28/06:30am 17.4 15.9 11.9 70 3.0 N 11 13 6 7 1017.2 1017.0 0.0
28/06:00am 17.6 15.9 12.3 71 2.9 NNW 13 15 7 8 1017.0 1016.8 0.0
28/05:30am 17.6 16.2 12.1 70 3.0 NNW 11 15 6 8 1016.8 1016.6 0.0
28/05:00am 17.5 16.4 12.0 70 3.0 NNW 9 11 5 6 1016.8 1016.6 0.0
28/04:30am 17.8 16.3 12.0 69 3.2 NNW 11 13 6 7 1016.8 1016.6 0.0
28/04:00am 18.0 16.5 11.8 67 3.4 NNW 11 13 6 7 1016.8 1016.6 0.0
28/03:30am 18.0 16.2 12.0 68 3.3 NNW 13 13 7 7 1016.8 1016.6 0.0
28/03:00am 18.0 17.0 12.2 69 3.2 N 9 13 5 7 1017.1 1016.9 0.0
28/02:30am 17.9 17.2 11.9 68 3.3 NNW 7 11 4 6 1017.2 1017.0 0.0
28/02:00am 18.6 17.5 12.1 66 3.6 NW 9 11 5 6 1017.3 1017.1 0.0
28/01:30am 19.3 18.8 12.1 63 4.0 WNW 6 7 3 4 1017.6 1017.4 0.0
28/01:00am 20.4 19.6 12.9 62 4.3 W 9 11 5 6 1017.6 1017.4 0.0
28/12:30am 19.0 18.1 12.7 67 3.5 W 9 13 5 7 1017.8 1017.6 0.0
28/12:00am 18.9 18.0 12.6 67 3.5 WNW 9 11 5 6 1018.0 1017.8 0.0
 
Date/Time
CDT
Temp
°C
App
Temp
°C
Dew
Point
°C
Rel
Hum
%
Delta-T
°C
Wind Press
QNH
hPa
Press
MSL
hPa
Rain since
9am
mm
Dir  Spd
km/h
Gust
km/h
Spd
kts
Gust
kts
27/11:30pm 18.6 18.2 12.4 67 3.5 WNW 6 9 3 5 1018.1 1017.9 0.0
27/11:00pm 19.5 19.3 13.0 66 3.7 W 6 9 3 5 1018.2 1018.0 0.0
27/10:30pm 19.6 18.9 13.1 66 3.7 W 9 13 5 7 1018.3 1018.1 0.0
27/10:00pm 19.6 18.9 13.1 66 3.7 WSW 9 13 5 7 1018.4 1018.2 0.0
27/09:30pm 19.3 18.5 13.0 67 3.6 WSW 9 11 5 6 1018.2 1018.0 0.0
27/09:00pm 19.2 18.9 13.4 69 3.3 WSW 7 9 4 5 1017.8 1017.6 0.0
27/08:30pm 20.0 18.7 13.7 67 3.6 SSW 13 15 7 8 1017.7 1017.5 0.0
27/08:00pm 21.0 18.9 13.7 63 4.2 SSW 17 20 9 11 1017.1 1016.9 0.0
27/07:30pm 22.2 19.7 13.5 57 5.0 SSW 19 24 10 13 1016.8 1016.6 0.0
27/07:00pm 23.4 20.0 13.6 54 5.7 SSW 24 33 13 18 1016.6 1016.4 0.0
27/06:30pm 25.5 22.0 13.4 47 7.1 SSW 24 32 13 17 1016.1 1015.9 0.0
27/06:00pm 26.8 23.1 13.9 45 7.7 SSW 26 33 14 18 1015.8 1015.6 0.0
27/05:30pm 27.3 23.7 14.3 45 7.8 SSW 26 32 14 17 1015.7 1015.5 0.0
27/05:00pm 27.8 25.2 15.8 48 7.4 SSW 24 32 13 17 1015.7 1015.5 0.0
27/04:30pm 29.1 26.5 14.9 42 8.7 SSW 22 28 12 15 1015.9 1015.7 0.0
27/04:00pm 29.6 27.7 15.7 43 8.6 SSW 20 26 11 14 1016.0 1015.8 0.0
27/03:30pm 29.7 27.8 15.8 43 8.6 SSW 20 28 11 15 1016.3 1016.1 0.0
27/03:00pm 29.2 26.0 15.3 42 8.5 S 26 32 14 17 1016.6 1016.4 0.0
27/02:30pm 30.4 27.9 14.1 37 9.9 SSE 20 30 11 16 1016.9 1016.7 0.0
27/02:00pm 30.8 27.9 14.0 36 10.2 S 22 30 12 16 1016.9 1016.7 0.0
27/01:30pm 30.8 29.2 12.7 33 10.7 S 13 20 7 11 1017.3 1017.1 0.0
27/01:00pm 30.4 29.8 12.3 33 10.7 SE 7 15 4 8 1017.6 1017.4 0.0
27/12:30pm 28.8 28.4 13.1 38 9.3 NNE 7 13 4 7 1017.8 1017.6 0.0
27/12:00pm 27.9 28.0 13.8 42 8.4 NNE 6 11 3 6 1018.2 1018.0 0.0
27/11:30am 26.1 26.0 13.9 47 7.2 S 7 11 4 6 1018.4 1018.2 0.0
27/11:00am 24.6 25.5 14.1 52 6.2 SE 2 9 1 5 1018.8 1018.7 0.0
27/10:30am 22.8 23.1 14.6 60 4.8 SSW 6 11 3 6 1019.0 1018.9 0.0
27/10:00am 21.7 21.9 14.6 64 4.2 S 7 13 4 7 1019.3 1019.2 0.0
27/09:30am 20.1 19.7 14.2 69 3.4 S 9 13 5 7 1019.2 1019.1 0.0
27/09:00am 19.2 19.0 14.7 75 2.6 SSW 9 13 5 7 1019.0 1018.9 0.0
27/08:30am 17.4 18.4 13.3 77 2.3 CALM 0 6 0 3 1019.0 1018.9 0.0
27/08:00am 14.7 15.5 12.6 87 1.2 CALM 0 0 0 0 1019.0 1018.9 0.0
27/07:30am 12.8 12.3 10.9 88 1.0 NW 4 7 2 4 1018.8 1018.7 0.0
27/07:00am 11.9 10.8 9.8 87 1.1 NNW 6 7 3 4 1018.6 1018.5 0.0
27/06:30am 12.7 11.2 10.4 86 1.2 NW 9 11 5 6 1018.5 1018.4 0.0
27/06:00am 12.9 11.1 10.8 87 1.1 NW 11 13 6 7 1018.4 1018.2 0.0
27/05:30am 13.0 10.9 11.1 88 1.0 NNW 13 17 7 9 1018.5 1018.4 0.0
27/05:00am 13.0 10.9 11.2 89 1.0 NNW 13 15 7 8 1018.5 1018.4 0.0
27/04:30am 13.4 11.4 11.6 89 1.0 NNW 13 15 7 8 1018.5 1018.4 0.0
27/04:00am 13.5 12.0 11.9 90 0.9 NW 11 11 6 6 1018.6 1018.5 0.0
27/03:30am 13.3 12.1 11.7 90 0.9 NW 9 9 5 5 1018.9 1018.8 0.0
27/03:00am 13.4 11.9 11.8 90 0.9 NW 11 11 6 6 1019.0 1018.9 0.0
27/02:30am 14.0 12.9 12.0 88 1.1 WNW 9 11 5 6 1019.5 1019.4 0.0
27/02:00am 14.5 13.2 12.5 88 1.1 W 11 11 6 6 1019.6 1019.5 0.0
27/01:30am 14.8 13.9 12.5 86 1.3 W 9 11 5 6 1020.0 1019.8 0.0
27/01:00am 15.7 15.1 13.5 87 1.2 WSW 9 11 5 6 1020.1 1019.9 0.0
27/12:30am 14.9 14.0 12.6 86 1.3 WSW 9 9 5 5 1019.8 1019.7 0.0
27/12:00am 15.2 14.4 12.9 86 1.3 WSW 9 13 5 7 1019.8 1019.7 0.0
 
Date/Time
CDT
Temp
°C
App
Temp
°C
Dew
Point
°C
Rel
Hum
%
Delta-T
°C
Wind Press
QNH
hPa
Press
MSL
hPa
Rain since
9am
mm
Dir  Spd
km/h
Gust
km/h
Spd
kts
Gust
kts
26/11:30pm 14.4 12.7 12.3 87 1.1 WSW 13 15 7 8 1020.0 1019.8 0.0
26/11:00pm 14.4 13.3 12.1 86 1.2 W 9 11 5 6 1020.1 1019.9 0.0
26/10:30pm 14.6 13.2 12.1 85 1.4 W 11 13 6 7 1020.2 1020.0 0.0
26/10:00pm 14.7 13.2 12.0 84 1.5 W 11 13 6 7 1020.2 1020.0 0.0
26/09:30pm 15.0 13.2 12.1 83 1.6 W 13 15 7 8 1020.0 1019.8 0.0
26/09:00pm 15.2 14.1 12.0 81 1.7 WSW 9 13 5 7 1019.5 1019.4 0.0
26/08:30pm 15.6 14.1 11.8 78 2.1 SW 11 15 6 8 1019.2 1019.1 0.0
26/08:00pm 16.8 14.2 12.1 74 2.6 SSW 17 20 9 11 1018.9 1018.8 0.0
26/07:30pm 17.9 15.1 11.5 66 3.5 SSW 17 24 9 13 1018.7 1018.6 0.0
26/07:00pm 19.1 15.7 11.2 60 4.3 SSW 20 26 11 14 1018.5 1018.4 0.0
26/06:30pm 20.1 16.6 10.8 55 5.1 SSW 20 26 11 14 1018.5 1018.4 0.0
26/06:00pm 21.0 17.5 10.8 52 5.6 SSW 20 28 11 15 1018.3 1018.1 0.0
26/05:30pm 22.0 18.6 10.5 48 6.3 S 19 26 10 14 1018.0 1017.8 0.0
26/05:00pm 22.4 18.8 9.9 45 6.8 S 19 26 10 14 1017.9 1017.7 0.0
26/04:30pm 23.1 19.9 9.8 43 7.2 S 17 22 9 12 1017.8 1017.6 0.0
26/04:00pm 23.1 19.3 9.1 41 7.5 SSE 19 24 10 13 1018.0 1017.8 0.0
26/03:30pm 23.4 19.5 8.7 39 7.9 SSE 19 26 10 14 1018.0 1017.8 0.0
26/03:00pm 23.2 19.4 9.2 41 7.5 SSW 19 26 10 14 1018.2 1018.0 0.0
26/02:30pm 24.0 21.1 6.3 32 9.1 SE 11 19 6 10 1018.6 1018.5 0.0
26/02:00pm 22.7 20.0 5.6 33 8.6 SW 9 15 5 8 1019.0 1018.9 0.0
26/01:30pm 22.6 20.4 6.0 34 8.4 SSE 7 15 4 8 1019.4 1019.3 0.0
26/01:00pm 21.7 18.5 6.8 38 7.6 SE 13 22 7 12 1019.7 1019.6 0.0
26/12:30pm 20.9 18.6 7.5 42 6.9 SE 9 17 5 9 1020.2 1020.0 0.0
26/12:00pm 19.6 17.8 8.0 47 6.0 SSE 7 13 4 7 1020.4 1020.2 0.0
26/11:30am 18.3 16.2 8.3 52 5.1 SSE 9 15 5 8 1020.7 1020.5 0.0
26/11:00am 17.6 15.9 8.5 55 4.7 NNE 7 11 4 6 1020.9 1020.7 0.0
26/10:30am 16.2 14.9 9.2 63 3.6 W 6 11 3 6 1021.3 1021.1 0.0
26/10:00am 14.9 13.4 8.4 65 3.3 SE 6 11 3 6 1021.6 1021.4 0.0
26/09:30am 15.2 14.3 9.1 67 3.1 S 4 7 2 4 1021.9 1021.7 0.0
26/09:00am 14.2 12.7 8.6 69 2.8 NE 6 11 3 6 1021.9 1021.7 0.0
26/08:30am 12.6 10.6 8.5 76 2.0 NW 9 9 5 5 1021.8 1021.6 0.0
26/08:00am 9.9 7.7 7.7 86 1.1 NNW 9 11 5 6 1021.7 1021.5 0.0
26/07:30am 7.7 5.5 6.0 89 0.8 NW 7 9 4 5 1021.6 1021.4 0.0
26/07:00am 6.7 5.6 4.9 88 0.8 CALM 0 7 0 4 1021.5 1021.3 0.0
26/06:30am 7.1 5.2 5.1 87 0.9 NNW 4 7 2 4 1021.4 1021.2 0.0
26/06:00am 7.6 5.2 5.2 85 1.1 NNW 7 9 4 5 1021.1 1020.9 0.0
26/05:30am 8.8 7.1 5.9 82 1.3 SSW 4 7 2 4 1020.9 1020.7 0.0
26/05:00am 9.2 7.2 6.3 82 1.3 WSW 6 7 3 4 1020.9 1020.7 0.0
26/04:30am 9.8 7.3 6.5 80 1.5 WSW 9 11 5 6 1021.0 1020.8 0.0
26/04:00am 10.1 7.7 6.8 80 1.6 WSW 9 11 5 6 1021.1 1020.9 0.0
26/03:30am 10.7 8.7 7.2 79 1.7 SW 7 11 4 6 1021.3 1021.1 0.0
26/03:00am 11.0 9.1 7.7 80 1.6 SW 7 9 4 5 1021.5 1021.3 0.0
26/02:30am 11.6 9.5 8.3 80 1.6 SSW 9 11 5 6 1021.6 1021.4 0.0
26/02:00am 12.2 10.3 8.9 80 1.7 SSW 9 13 5 7 1021.9 1021.7 0.0
26/01:30am 12.6 10.4 9.2 80 1.7 S 11 13 6 7 1022.0 1021.8 0.0
26/01:00am 12.7 11.0 9.7 82 1.5 SW 9 11 5 6 1022.2 1022.0 0.0
26/12:30am 13.0 11.3 10.0 82 1.5 WSW 9 11 5 6 1022.4 1022.2 0.0
26/12:00am 13.2 11.5 9.8 80 1.7 WSW 9 13 5 7 1022.6 1022.4 0.0
 
Date/Time
CDT
Temp
°C
App
Temp
°C
Dew
Point
°C
Rel
Hum
%
Delta-T
°C
Wind Press
QNH
hPa
Press
MSL
hPa
Rain since
9am
mm
Dir  Spd
km/h
Gust
km/h
Spd
kts
Gust
kts
25/11:30pm 13.2 11.1 9.8 80 1.7 WSW 11 13 6 7 1022.8 1022.6 0.0
25/11:00pm 13.4 11.3 9.8 79 1.9 WSW 11 15 6 8 1023.0 1022.8 0.0
25/10:30pm 13.9 12.2 9.7 76 2.2 SW 9 13 5 7 1023.1 1022.9 0.0
25/10:00pm 14.4 12.0 10.0 75 2.3 SSW 13 19 7 10 1023.3 1023.1 0.0
25/09:30pm 14.9 11.9 10.5 75 2.3 SSW 17 20 9 11 1023.4 1023.2 0.0
25/09:00pm 14.8 11.9 9.8 72 2.6 SSW 15 20 8 11 1023.0 1022.8 0.0
25/08:30pm 15.4 12.1 9.7 69 3.0 SSW 17 20 9 11 1022.8 1022.6 0.0
25/08:00pm 16.0 11.8 9.7 66 3.3 S 22 30 12 16 1022.6 1022.4 0.0
25/07:30pm 16.8 12.2 9.7 63 3.7 S 24 33 13 18 1022.4 1022.2 0.0
25/07:00pm 17.5 12.2 9.9 61 4.0 S 28 35 15 19 1022.3 1022.1 0.0
25/06:30pm 18.8 13.4 9.6 55 4.9 S 28 35 15 19 1022.4 1022.2 0.0
25/06:00pm 18.9 13.2 9.7 55 4.9 S 30 43 16 23 1022.4 1022.2 0.0
25/05:30pm 19.5 13.7 9.4 52 5.3 S 30 44 16 24 1022.5 1022.3 0.0
25/05:16pm 19.9 14.5 9.5 51 5.5 S 28 48 15 26 1022.4 1022.2 0.0
25/05:00pm 19.7 13.7 8.7 49 5.8 S 30 41 16 22 1022.7 1022.5 0.0
25/04:30pm 19.9 13.8 8.3 47 6.0 S 30 37 16 20 1022.9 1022.7 0.0
25/04:00pm 19.7 13.9 7.8 46 6.1 SSW 28 37 15 20 1023.0 1022.8 0.0
25/03:31pm 20.0 14.3 8.4 47 6.1 S 28 46 15 25 1023.3 1023.1 0.0
25/03:30pm 20.1 14.0 8.4 47 6.1 S 30 46 16 25 1023.2 1023.0 0.0
25/03:26pm 21.3 15.9 9.5 47 6.3 S 28 46 15 25 1023.3 1023.1 0.0
25/03:00pm 20.5 15.3 8.8 47 6.1 S 26 35 14 19 1023.5 1023.3 0.0
25/02:30pm 20.2 15.2 7.9 45 6.3 S 24 39 13 21 1024.0 1023.8 0.0
25/02:00pm 20.1 14.7 7.8 45 6.4 SSE 26 35 14 19 1024.4 1024.2 0.0

Other Formats:

Comma delimited format used in spreadsheet applications
http://www.bom.gov.au/fwo/IDS60801/IDS60801.94814.axf

JavaScript Object Notation format (JSON) in row-major order
http://www.bom.gov.au/fwo/IDS60801/IDS60801.94814.json